Latest Weather Observations for Kilmore Gap

IDV60801

Issued at 8:02 pm EST Friday 27 May 2016 (issued every 30 minutes, with the page automatically refreshed every 10 minutes)

About weather observations | Map of weather stations | Latest weather observations for VIC | Other Formats
Station Details ID: 088162 Name: KILMORE GAP Lat: -37.38 Lon: 144.97 Height: 527.8 m
Data from the previous 72 hours. | See also: Recent months at Kilmore Gap
Date/Time
EST
Temp
°C
App
Temp
°C
Dew
Point
Rel
Hum
%
Delta-T
°C
Wind Press
QNH
hPa
Press
MSL
hPa
Rain
since 9 am
mm
Dir
 
Spd
km/h
Gust
km/h
Spd
kts
Gust
kts
27/08:00pm 6.8 2.6 3.9 82 1.3 NNE 15 17 8 9 1007.2 - 0.0
27/07:30pm 7.0 2.8 4.0 81 1.3 NNE 15 17 8 9 1007.2 - 0.0
27/07:00pm 7.2 3.3 3.4 77 1.7 NNE 13 15 7 8 1007.2 - 0.0
27/06:30pm 7.8 4.3 3.5 74 1.9 N 11 13 6 7 1007.0 - 0.0
27/06:00pm 7.8 4.7 3.5 74 1.9 NNE 9 11 5 6 1006.9 1007.0 0.0
27/05:30pm 8.6 7.1 3.2 69 2.4 CALM 0 0 0 0 1006.8 - 0.0
27/05:00pm 8.8 6.2 3.4 69 2.4 ENE 6 7 3 4 1006.8 - 0.0
27/04:30pm 9.0 6.5 3.6 69 2.4 ESE 6 9 3 5 1006.7 - 0.0
27/04:00pm 9.7 8.3 3.7 66 2.7 CALM 0 0 0 0 1006.7 - 0.0
27/03:30pm 9.9 7.5 4.3 68 2.6 SSE 6 9 3 5 1006.7 - 0.0
27/03:00pm 10.1 7.6 4.7 69 2.5 SSE 7 13 4 7 1006.7 1006.8 0.0
27/02:30pm 10.2 8.1 5.6 73 2.2 S 6 11 3 6 1006.6 - 0.0
27/02:00pm 9.0 6.5 4.8 75 1.9 SW 7 11 4 6 1006.7 - 0.0
27/01:30pm 9.0 5.8 5.2 77 1.8 SSW 11 17 6 9 1006.9 - 0.0
27/01:00pm 9.9 6.9 5.9 76 1.9 WSW 11 17 6 9 1007.0 - 0.0
27/12:30pm 10.0 7.6 7.1 82 1.4 SSW 9 15 5 8 1007.2 - 0.0
27/12:00pm 8.8 5.2 5.0 77 1.8 WSW 13 19 7 10 1007.4 1007.6 0.0
27/11:30am 9.1 4.3 5.7 79 1.6 W 20 28 11 15 1007.7 - 0.0
27/11:00am 8.4 5.1 6.4 87 0.9 SW 13 19 7 10 1007.9 - 0.0
27/10:30am 7.9 4.6 6.4 90 0.7 SW 13 17 7 9 1008.1 - 0.0
27/10:00am 7.3 3.5 5.9 91 0.7 WSW 15 20 8 11 1008.1 - 0.0
27/09:30am 7.1 3.3 5.6 90 0.7 WSW 15 24 8 13 1007.8 - 0.0
27/09:00am 6.4 2.1 5.4 93 0.5 W 17 20 9 11 1007.8 1008.0 6.6
27/08:30am 5.8 1.4 4.9 94 0.4 W 17 22 9 12 1007.6 - 6.6
27/08:00am 5.5 1.1 4.8 95 0.3 WSW 17 24 9 13 1007.5 - 6.6
27/07:30am 5.3 0.9 4.7 96 0.3 WSW 17 20 9 11 1007.3 - 6.6
27/07:00am 5.5 1.1 4.9 96 0.3 WSW 17 20 9 11 1007.2 - 6.6
27/06:30am 5.4 1.0 4.8 96 0.3 WSW 17 22 9 12 1007.1 - 6.6
27/06:00am 5.6 1.6 4.9 95 0.3 WSW 15 19 8 10 1007.0 1007.1 6.6
27/05:30am 5.7 1.3 4.7 93 0.4 WSW 17 26 9 14 1006.8 - 6.6
27/05:00am 5.7 1.3 4.7 93 0.4 WSW 17 24 9 13 1006.7 - 6.6
27/04:30am 5.5 1.1 4.8 95 0.3 WSW 17 24 9 13 1006.9 - 6.6
27/04:00am 5.1 0.7 4.5 96 0.3 WSW 17 22 9 12 1006.7 - 6.6
27/03:30am 5.1 0.3 4.5 96 0.3 WSW 19 24 10 13 1006.5 - 6.6
27/03:00am 5.0 0.0 4.4 96 0.3 WSW 20 28 11 15 1006.6 1006.7 6.4
27/02:30am 5.4 0.1 4.8 96 0.3 SW 22 28 12 15 1006.8 - 6.4
27/02:00am 5.1 0.1 4.5 96 0.3 WSW 20 26 11 14 1006.7 - 6.4
27/01:30am 5.7 0.0 4.8 94 0.4 SW 24 33 13 18 1006.6 - 6.4
27/01:00am 5.5 -0.6 4.8 95 0.3 SW 26 33 14 18 1006.7 - 6.4
27/12:30am 5.6 -0.5 4.9 95 0.3 SW 26 35 14 19 1006.7 - 6.4
27/12:00am 5.6 -0.5 5.0 96 0.3 SW 26 35 14 19 1006.8 1006.9 6.4
 
Date/Time
EST
Temp
°C
App
Temp
°C
Dew
Point
Rel
Hum
%
Delta-T
°C
Wind Press
QNH
hPa
Press
MSL
hPa
Rain
since 9 am
mm
Dir
 
Spd
km/h
Gust
km/h
Spd
kts
Gust
kts
26/11:30pm 5.5 -0.9 5.1 97 0.2 SW 28 37 15 20 1006.7 - 6.4
26/11:00pm 5.6 -0.4 5.3 98 0.1 SW 26 33 14 18 1006.7 - 6.4
26/10:30pm 5.6 0.0 5.3 98 0.1 SW 24 32 13 17 1006.8 - 6.4
26/10:00pm 5.8 -0.2 5.5 98 0.1 SW 26 37 14 20 1006.9 - 6.4
26/09:30pm 5.8 -0.1 5.7 99 0.0 SW 26 35 14 19 1006.8 - 6.4
26/09:00pm 5.9 0.0 5.8 99 0.0 SW 26 35 14 19 1006.7 1006.8 6.4
26/08:30pm 5.7 -0.2 5.6 99 0.0 SW 26 33 14 18 1006.2 - 6.4
26/08:00pm 5.8 0.3 5.7 99 0.0 SW 24 32 13 17 1006.2 - 6.4
26/07:30pm 6.0 0.5 5.9 99 0.0 SW 24 33 13 18 1006.0 - 6.4
26/07:00pm 6.2 1.1 6.1 99 0.0 SW 22 30 12 16 1005.7 - 6.4
26/06:30pm 6.7 2.1 6.6 99 0.0 SW 20 30 11 16 1005.4 - 6.4
26/06:00pm 6.8 2.2 6.7 99 0.0 SW 20 30 11 16 1005.0 1005.1 6.4
26/05:30pm 6.9 2.4 6.8 99 0.0 SW 20 28 11 15 1004.6 - 6.2
26/05:00pm 6.7 1.7 6.6 99 0.0 SW 22 30 12 16 1004.3 - 6.2
26/04:30pm 6.8 0.7 6.7 99 0.0 SW 28 39 15 21 1004.1 - 6.0
26/04:00pm 7.3 2.1 7.2 99 0.0 SSW 24 37 13 20 1003.7 - 5.8
26/03:59pm 7.3 2.1 7.2 99 0.0 SSW 24 37 13 20 1003.7 - 5.8
26/03:30pm 7.6 2.5 7.5 99 0.0 SSW 24 32 13 17 1003.5 - 5.6
26/03:24pm 7.4 2.6 7.3 99 0.0 SSW 22 32 12 17 1003.4 - 5.6
26/03:00pm 7.4 2.6 7.3 99 0.0 SSW 22 33 12 18 1003.3 1003.4 5.4
26/02:30pm 7.2 2.7 7.1 99 0.0 SSW 20 28 11 15 1003.1 - 5.2
26/02:19pm 7.1 2.2 7.0 99 0.0 SSW 22 35 12 19 1003.0 - 4.8
26/02:18pm 7.3 2.9 7.2 99 0.0 SSW 20 33 11 18 1003.0 - 4.8
26/02:00pm 7.5 2.0 7.4 99 0.0 SSW 26 39 14 21 1002.9 - 4.8
26/01:32pm 7.7 2.6 7.6 99 0.0 SSW 24 37 13 20 1002.9 - 4.4
26/01:30pm 7.5 2.3 7.4 99 0.0 SSW 24 37 13 20 1002.9 - 4.4
26/01:00pm 7.8 3.1 7.7 99 0.0 SSW 22 37 12 20 1002.8 - 3.2
26/12:46pm 7.8 2.3 7.7 99 0.0 SSW 26 35 14 19 1002.8 - 2.8
26/12:32pm 7.9 2.5 7.8 99 0.0 SW 26 41 14 22 1002.6 - 2.0
26/12:30pm 8.1 2.7 8.0 99 0.0 SW 26 41 14 22 1002.6 - 2.0
26/12:28pm 8.0 3.0 7.9 99 0.0 SW 24 41 13 22 1002.6 - 1.8
26/12:24pm 8.3 4.1 8.2 99 0.0 SW 20 32 11 17 1002.6 - 1.4
26/12:00pm 8.5 4.3 8.4 99 0.0 SW 20 28 11 15 1002.7 1002.8 0.6
26/11:30am 8.6 5.8 8.5 99 0.0 NNW 13 17 7 9 1002.9 - 0.4
26/11:00am 8.4 5.2 8.3 99 0.0 NNW 15 19 8 10 1003.2 - 0.4
26/10:56am 8.5 4.9 8.4 99 0.0 NNW 17 22 9 12 1003.3 - 0.4
26/10:30am 8.1 4.4 8.0 99 0.0 N 17 20 9 11 1003.4 - 0.4
26/10:00am 7.6 3.2 7.5 99 0.0 N 20 24 11 13 1003.4 - 0.4
26/09:30am 7.3 2.5 7.2 99 0.0 N 22 26 12 14 1003.5 - 0.2
26/09:00am 7.2 2.3 7.1 99 0.0 N 22 28 12 15 1003.6 1003.7 3.0
26/08:30am 7.1 1.1 7.0 99 0.0 N 28 33 15 18 1003.3 - 3.0
26/08:00am 7.0 1.0 6.9 99 0.0 N 28 35 15 19 1003.1 - 2.6
26/07:59am 7.0 0.6 6.9 99 0.0 N 30 35 16 19 1003.1 - 2.6
26/07:55am 7.0 1.0 6.9 99 0.0 N 28 35 15 19 1003.0 - 2.6
26/07:32am 6.9 0.8 6.8 99 0.0 N 28 35 15 19 1003.1 - 2.4
26/07:30am 7.0 1.0 6.9 99 0.0 N 28 35 15 19 1003.1 - 2.4
26/07:00am 6.9 0.8 6.8 99 0.0 N 28 35 15 19 1003.1 - 2.4
26/06:30am 6.8 0.7 6.7 99 0.0 N 28 37 15 20 1003.1 - 2.4
26/06:00am 6.8 0.0 6.7 99 0.0 N 32 41 17 22 1003.5 1003.6 2.4
26/05:36am 6.7 -0.4 6.6 99 0.0 N 33 41 18 22 1003.6 - 2.4
26/05:34am 6.7 -0.4 6.6 99 0.0 N 33 41 18 22 1003.7 - 2.4
26/05:31am 6.7 -0.2 6.6 99 0.0 N 32 41 17 22 1003.7 - 2.4
26/05:30am 6.7 -0.2 6.6 99 0.0 N 32 41 17 22 1003.8 - 2.4
26/05:28am 6.7 -0.2 6.6 99 0.0 N 32 41 17 22 1003.8 - 2.4
26/05:27am 6.7 -0.2 6.6 99 0.0 N 32 41 17 22 1003.8 - 2.4
26/05:26am 6.7 -0.2 6.6 99 0.0 N 32 41 17 22 1003.8 - 2.4
26/05:25am 6.7 -0.2 6.6 99 0.0 N 32 41 17 22 1003.8 - 2.4
26/05:23am 6.7 -0.2 6.6 99 0.0 N 32 43 17 23 1003.9 - 2.4
26/05:22am 6.7 -0.2 6.6 99 0.0 N 32 43 17 23 1003.9 - 2.4
26/05:00am 6.7 -0.7 6.6 99 0.0 N 35 46 19 25 1003.8 - 2.4
26/04:30am 6.9 0.1 6.8 99 0.0 N 32 46 17 25 1004.3 - 2.4
26/04:25am 6.9 -0.1 6.8 99 0.0 N 33 46 18 25 1004.5 - 2.4
26/04:24am 6.8 -0.2 6.7 99 0.0 N 33 46 18 25 1004.3 - 2.4
26/04:00am 6.9 -0.1 6.8 99 0.0 N 33 44 18 24 1004.2 - 2.2
26/03:56am 6.9 -0.1 6.8 99 0.0 N 33 44 18 24 1004.3 - 2.2
26/03:55am 6.9 -0.1 6.8 99 0.0 N 33 44 18 24 1004.2 - 2.2
26/03:30am 6.9 -0.5 6.8 99 0.0 N 35 46 19 25 1004.7 - 2.2
26/03:23am 6.9 -0.1 6.8 99 0.0 N 33 44 18 24 1004.8 - 2.2
26/03:22am 6.9 -0.5 6.8 99 0.0 N 35 44 19 24 1004.8 - 2.2
26/03:00am 6.8 -1.0 6.7 99 0.0 N 37 50 20 27 1004.9 1005.0 2.0
26/02:30am 6.9 -2.2 6.8 99 0.0 N 44 54 24 29 1005.2 - 2.0
26/02:00am 6.9 -2.0 6.8 99 0.0 N 43 54 23 29 1005.7 - 2.0
26/01:32am 7.0 -2.8 6.9 99 0.0 N 48 61 26 33 1005.7 - 2.0
26/01:31am 7.0 -2.8 6.9 99 0.0 N 48 61 26 33 1005.5 - 2.0
26/01:30am 7.0 -2.5 6.9 99 0.0 N 46 61 25 33 1005.5 - 2.0
26/01:23am 7.0 -1.5 6.9 99 0.0 N 41 59 22 32 1005.7 - 2.0
26/01:00am 7.0 -1.1 6.9 99 0.0 N 39 54 21 29 1006.3 - 2.0
26/12:59am 7.0 -1.1 6.9 99 0.0 N 39 54 21 29 1006.2 - 2.0
26/12:30am 7.1 -2.0 7.0 99 0.0 N 44 56 24 30 1006.2 - 1.8
26/12:22am 7.0 -2.8 6.9 99 0.0 N 48 61 26 33 1006.0 - 1.8
26/12:00am 7.1 -2.3 7.0 99 0.0 N 46 56 25 30 1006.6 1006.7 1.6
 
Date/Time
EST
Temp
°C
App
Temp
°C
Dew
Point
Rel
Hum
%
Delta-T
°C
Wind Press
QNH
hPa
Press
MSL
hPa
Rain
since 9 am
mm
Dir
 
Spd
km/h
Gust
km/h
Spd
kts
Gust
kts
25/11:30pm 6.9 -3.3 6.8 99 0.0 N 50 67 27 36 1006.8 - 1.6
25/11:28pm 6.9 -3.0 6.8 99 0.0 N 48 67 26 36 1006.9 - 1.6
25/11:25pm 7.0 -2.8 6.9 99 0.0 N 48 67 26 36 1007.1 - 1.4
25/11:24pm 7.0 -2.8 6.9 99 0.0 N 48 67 26 36 1007.0 - 1.4
25/11:23pm 7.0 -2.8 6.9 99 0.0 N 48 67 26 36 1007.0 - 1.4
25/11:22pm 6.9 -3.0 6.8 99 0.0 N 48 67 26 36 1006.9 - 1.4
25/11:00pm 7.0 -3.2 6.9 99 0.0 N 50 61 27 33 1007.3 - 1.2
25/10:42pm 7.1 -2.3 7.0 99 0.0 N 46 61 25 33 1007.6 - 0.6
25/10:39pm 7.1 -2.0 7.0 99 0.0 N 44 61 24 33 1007.6 - 0.6
25/10:30pm 7.2 -2.2 7.1 99 0.0 N 46 59 25 32 1007.5 - 0.6
25/10:26pm 7.1 -2.3 7.0 99 0.0 N 46 63 25 34 1007.4 - 0.4
25/10:25pm 7.2 -2.2 7.1 99 0.0 N 46 63 25 34 1007.6 - 0.4
25/10:04pm 7.3 -3.2 7.2 99 0.0 N 52 69 28 37 1007.4 - 0.4
25/10:03pm 7.2 -3.4 7.1 99 0.0 N 52 69 28 37 1007.3 - 0.4
25/10:00pm 7.3 -3.6 7.2 99 0.0 N 54 69 29 37 1007.4 - 0.4
25/09:55pm 7.2 -4.3 7.1 99 0.0 N 57 72 31 39 1007.2 - 0.4
25/09:34pm 7.2 -4.7 7.1 99 0.0 N 59 74 32 40 1006.9 - 0.4
25/09:32pm 7.2 -4.7 7.1 99 0.0 N 59 78 32 42 1007.0 - 0.4
25/09:31pm 7.2 -4.7 7.1 99 0.0 N 59 78 32 42 1007.0 - 0.4
25/09:30pm 7.2 -4.7 7.1 99 0.0 N 59 78 32 42 1007.0 - 0.4
25/09:29pm 7.2 -4.7 7.1 99 0.0 N 59 78 32 42 1007.0 - 0.4
25/09:27pm 7.2 -4.7 7.1 99 0.0 N 59 78 32 42 1007.0 - 0.4
25/09:26pm 7.2 -4.7 7.1 99 0.0 N 59 78 32 42 1007.0 - 0.4
25/09:24pm 7.2 -4.7 7.1 99 0.0 N 59 78 32 42 1006.8 - 0.4
25/09:00pm 7.3 -4.2 7.2 99 0.0 N 57 70 31 38 1007.7 1007.9 0.2
25/08:30pm 7.6 -2.9 7.5 99 0.0 N 52 65 28 35 1008.8 - 0.0
25/08:23pm 7.7 -1.2 7.6 99 0.0 N 44 63 24 34 1008.8 - 0.0
25/08:00pm 7.9 -2.5 7.8 99 0.0 N 52 69 28 37 1008.6 - 0.0
25/07:54pm 7.9 -2.5 7.8 99 0.0 N 52 67 28 36 1008.4 - 0.0
25/07:30pm 8.0 -1.6 7.9 99 0.0 N 48 61 26 33 1008.6 - 0.0
25/07:27pm 8.0 -1.6 7.9 99 0.0 N 48 61 26 33 1008.4 - 0.0
25/07:26pm 8.0 -2.0 7.9 99 0.0 N 50 61 27 33 1008.3 - 0.0
25/07:25pm 8.0 -1.6 7.9 99 0.0 N 48 61 26 33 1008.4 - 0.0
25/07:23pm 8.1 -1.5 8.0 99 0.0 N 48 61 26 33 1008.4 - 0.0
25/07:02pm 8.0 -1.6 7.9 99 0.0 N 48 67 26 36 1008.9 - 0.0
25/07:00pm 8.0 -1.6 7.9 99 0.0 N 48 59 26 32 1008.9 - 0.0
25/06:30pm 8.0 -1.7 7.7 98 0.1 N 48 61 26 33 1008.8 - 0.0
25/06:00pm 8.7 -1.8 7.3 91 0.7 N 52 65 28 35 1009.1 1009.3 0.0
25/05:30pm 8.7 -0.3 7.3 91 0.7 N 44 56 24 30 1009.0 - 0.0
25/05:00pm 8.5 -0.5 7.4 93 0.5 N 44 57 24 31 1009.0 - 0.0
25/04:30pm 8.8 -0.6 7.3 90 0.7 N 46 63 25 34 1009.3 - 0.0
25/04:00pm 9.6 0.0 8.0 90 0.8 N 48 61 26 33 1009.2 - 0.0
25/03:30pm 9.6 1.1 8.5 93 0.6 N 43 54 23 29 1009.9 - 0.0
25/03:00pm 9.5 1.7 8.4 93 0.6 N 39 52 21 28 1010.3 1010.5 0.0
25/02:30pm 9.2 1.8 8.3 94 0.4 N 37 48 20 26 1010.4 - 0.0
25/02:00pm 9.1 2.0 8.0 93 0.5 N 35 44 19 24 1010.7 - 0.0
25/01:30pm 9.1 1.5 7.7 91 0.7 N 37 50 20 27 1011.1 - 0.0
25/01:00pm 9.0 0.3 7.5 90 0.7 N 43 56 23 30 1011.5 - 0.0
25/12:30pm 8.7 0.4 7.6 93 0.5 N 41 54 22 29 1012.1 - 0.0
25/12:00pm 8.3 -0.5 8.0 98 0.1 N 44 57 24 31 1012.6 1012.8 0.0
25/11:31am 7.7 -0.6 7.6 99 0.0 N 41 54 22 29 1013.3 - 0.0
25/11:30am 7.7 -0.6 7.6 99 0.0 N 41 54 22 29 1013.2 - 0.0
25/11:26am 7.7 -0.3 7.6 99 0.0 N 39 54 21 29 1013.4 - 0.0
25/11:00am 7.5 -1.3 7.4 99 0.0 N 43 56 23 30 1013.9 - 0.0
25/10:30am 7.4 -0.3 7.3 99 0.0 N 37 48 20 26 1014.4 - 0.0
25/10:00am 6.9 -0.5 6.8 99 0.0 N 35 46 19 25 1015.1 - 0.0
25/09:30am 6.4 -1.5 6.1 98 0.1 N 37 44 20 24 1015.1 - 0.0
25/09:00am 6.2 -2.9 5.9 98 0.1 N 43 54 23 29 1015.2 1015.4 0.0
25/08:30am 6.0 -2.4 5.7 98 0.1 N 39 46 21 25 1015.5 - 0.0
25/08:00am 6.0 -1.2 5.7 98 0.1 N 33 41 18 22 1015.6 - 0.0
25/07:30am 6.5 -1.0 6.2 98 0.1 N 35 44 19 24 1015.4 - 0.0
25/07:00am 6.6 -0.4 6.2 97 0.2 N 32 41 17 22 1015.8 - 0.0
25/06:30am 6.9 -0.1 6.2 95 0.3 N 32 39 17 21 1015.7 - 0.0
25/06:00am 6.4 -0.8 5.7 95 0.3 N 33 41 18 22 1015.6 1015.9 0.0
25/05:30am 6.1 -0.6 5.5 96 0.3 N 30 37 16 20 1015.7 - 0.0
25/05:00am 6.3 -0.1 5.4 94 0.4 N 28 32 15 17 1016.2 - 0.0
25/04:30am 5.7 -0.7 5.1 96 0.3 N 28 32 15 17 1016.1 - 0.0
25/04:00am 6.0 -0.4 5.3 95 0.3 N 28 32 15 17 1016.3 - 0.0
25/03:30am 6.1 -0.3 5.2 94 0.4 N 28 33 15 18 1016.7 - 0.0
25/03:00am 5.8 -0.6 5.1 95 0.3 N 28 33 15 18 1017.0 1017.3 0.0
25/02:30am 5.7 0.0 4.8 94 0.4 N 24 28 13 15 1017.0 - 0.0
25/02:00am 5.9 0.2 4.7 92 0.5 N 24 30 13 16 1017.4 - 0.0
25/01:30am 6.4 1.5 5.0 91 0.6 N 20 24 11 13 1017.6 - 0.0
25/01:00am 6.8 2.1 5.0 88 0.8 N 19 22 10 12 1017.9 - 0.0
25/12:30am 6.9 2.1 4.9 87 0.9 N 19 22 10 12 1018.1 - 0.0
25/12:00am 7.3 2.5 4.9 85 1.1 N 19 20 10 11 1018.4 1018.7 0.0
 
Date/Time
EST
Temp
°C
App
Temp
°C
Dew
Point
Rel
Hum
%
Delta-T
°C
Wind Press
QNH
hPa
Press
MSL
hPa
Rain
since 9 am
mm
Dir
 
Spd
km/h
Gust
km/h
Spd
kts
Gust
kts
24/11:30pm 7.5 3.2 5.1 85 1.1 N 17 20 9 11 1018.4 - 0.0
24/11:00pm 7.6 4.0 4.9 83 1.2 N 13 15 7 8 1018.4 - 0.0
24/10:30pm 7.9 4.3 5.0 82 1.3 N 13 15 7 8 1018.7 - 0.0
24/10:00pm 8.7 5.5 5.3 79 1.6 N 11 13 6 7 1019.1 - 0.0
24/09:30pm 8.2 4.6 4.8 79 1.6 NNW 13 13 7 7 1019.7 - 0.0
24/09:00pm 8.6 5.8 5.0 78 1.7 N 9 11 5 6 1020.1 1020.5 0.0
24/08:30pm 8.8 7.7 5.2 78 1.7 CALM 0 0 0 0 1020.0 - 0.0

Other Formats:

Comma delimited format used in spreadsheet applications
http://www.bom.gov.au/fwo/IDV60801/IDV60801.94860.axf

JavaScript Object Notation format (JSON) in row-major order
http://www.bom.gov.au/fwo/IDV60801/IDV60801.94860.json